sensor_id;sensor_type;location;lat;lon;timestamp;P1;durP1;ratioP1;P2;durP2;ratioP2
11933;SDS011;6026;48.784;9.198;2024-02-14T00:02:00;0.20;;;0.20;;
11933;SDS011;6026;48.784;9.198;2024-02-14T00:04:26;0.10;;;0.10;;
11933;SDS011;6026;48.784;9.198;2024-02-14T00:06:51;0.10;;;0.10;;
11933;SDS011;6026;48.784;9.198;2024-02-14T00:09:18;0.20;;;0.20;;
11933;SDS011;6026;48.784;9.198;2024-02-14T00:11:44;0.20;;;0.20;;
11933;SDS011;6026;48.784;9.198;2024-02-14T00:14:09;0.20;;;0.20;;
11933;SDS011;6026;48.784;9.198;2024-02-14T00:16:35;0.20;;;0.20;;
11933;SDS011;6026;48.784;9.198;2024-02-14T00:19:01;0.20;;;0.20;;
11933;SDS011;6026;48.784;9.198;2024-02-14T00:21:27;0.10;;;0.10;;
11933;SDS011;6026;48.784;9.198;2024-02-14T00:23:53;0.10;;;0.10;;
11933;SDS011;6026;48.784;9.198;2024-02-14T00:26:18;0.20;;;0.20;;
11933;SDS011;6026;48.784;9.198;2024-02-14T00:28:44;0.20;;;0.20;;
11933;SDS011;6026;48.784;9.198;2024-02-14T00:31:09;0.20;;;0.20;;
11933;SDS011;6026;48.784;9.198;2024-02-14T00:33:35;0.10;;;0.10;;
11933;SDS011;6026;48.784;9.198;2024-02-14T00:36:00;0.20;;;0.20;;
11933;SDS011;6026;48.784;9.198;2024-02-14T00:38:26;0.10;;;0.10;;
11933;SDS011;6026;48.784;9.198;2024-02-14T00:40:52;0.20;;;0.20;;
11933;SDS011;6026;48.784;9.198;2024-02-14T00:43:17;0.10;;;0.10;;
11933;SDS011;6026;48.784;9.198;2024-02-14T00:45:43;0.10;;;0.10;;
11933;SDS011;6026;48.784;9.198;2024-02-14T00:48:08;0.20;;;0.20;;
11933;SDS011;6026;48.784;9.198;2024-02-14T00:50:34;0.20;;;0.20;;
11933;SDS011;6026;48.784;9.198;2024-02-14T00:52:59;0.10;;;0.10;;
11933;SDS011;6026;48.784;9.198;2024-02-14T00:55:25;0.20;;;0.20;;
11933;SDS011;6026;48.784;9.198;2024-02-14T00:57:51;0.20;;;0.20;;
11933;SDS011;6026;48.784;9.198;2024-02-14T01:00:17;0.20;;;0.20;;
11933;SDS011;6026;48.784;9.198;2024-02-14T01:02:43;0.20;;;0.20;;
11933;SDS011;6026;48.784;9.198;2024-02-14T01:05:09;0.20;;;0.20;;
11933;SDS011;6026;48.784;9.198;2024-02-14T01:07:35;0.10;;;0.10;;
11933;SDS011;6026;48.784;9.198;2024-02-14T01:10:01;0.10;;;0.10;;
11933;SDS011;6026;48.784;9.198;2024-02-14T01:12:27;0.10;;;0.10;;
11933;SDS011;6026;48.784;9.198;2024-02-14T01:14:54;0.80;;;0.80;;
11933;SDS011;6026;48.784;9.198;2024-02-14T01:17:20;0.10;;;0.10;;
11933;SDS011;6026;48.784;9.198;2024-02-14T01:19:46;0.20;;;0.20;;
11933;SDS011;6026;48.784;9.198;2024-02-14T01:22:11;0.20;;;0.20;;
11933;SDS011;6026;48.784;9.198;2024-02-14T01:24:37;0.10;;;0.10;;
11933;SDS011;6026;48.784;9.198;2024-02-14T01:27:02;0.10;;;0.10;;
11933;SDS011;6026;48.784;9.198;2024-02-14T01:29:28;0.20;;;0.20;;
11933;SDS011;6026;48.784;9.198;2024-02-14T01:31:54;0.20;;;0.20;;
11933;SDS011;6026;48.784;9.198;2024-02-14T01:34:20;0.20;;;0.20;;
11933;SDS011;6026;48.784;9.198;2024-02-14T01:36:47;0.20;;;0.20;;
11933;SDS011;6026;48.784;9.198;2024-02-14T01:39:13;0.20;;;0.20;;
11933;SDS011;6026;48.784;9.198;2024-02-14T01:41:38;0.20;;;0.20;;
11933;SDS011;6026;48.784;9.198;2024-02-14T01:44:04;0.10;;;0.10;;
11933;SDS011;6026;48.784;9.198;2024-02-14T01:46:29;0.20;;;0.20;;
11933;SDS011;6026;48.784;9.198;2024-02-14T01:48:55;0.13;;;0.13;;
11933;SDS011;6026;48.784;9.198;2024-02-14T01:51:22;0.20;;;0.20;;
11933;SDS011;6026;48.784;9.198;2024-02-14T01:53:49;0.20;;;0.20;;
11933;SDS011;6026;48.784;9.198;2024-02-14T01:56:16;0.30;;;0.30;;
11933;SDS011;6026;48.784;9.198;2024-02-14T01:58:42;0.10;;;0.10;;
11933;SDS011;6026;48.784;9.198;2024-02-14T02:01:08;0.10;;;0.10;;
11933;SDS011;6026;48.784;9.198;2024-02-14T02:03:35;0.20;;;0.20;;
11933;SDS011;6026;48.784;9.198;2024-02-14T02:06:02;0.10;;;0.10;;
11933;SDS011;6026;48.784;9.198;2024-02-14T02:08:31;0.20;;;0.20;;
11933;SDS011;6026;48.784;9.198;2024-02-14T02:10:58;0.10;;;0.10;;
11933;SDS011;6026;48.784;9.198;2024-02-14T02:13:23;0.20;;;0.20;;
11933;SDS011;6026;48.784;9.198;2024-02-14T02:15:51;0.20;;;0.20;;
11933;SDS011;6026;48.784;9.198;2024-02-14T02:18:18;0.17;;;0.17;;
11933;SDS011;6026;48.784;9.198;2024-02-14T02:20:44;0.10;;;0.10;;
11933;SDS011;6026;48.784;9.198;2024-02-14T02:23:13;0.20;;;0.20;;
11933;SDS011;6026;48.784;9.198;2024-02-14T02:25:39;0.20;;;0.20;;
11933;SDS011;6026;48.784;9.198;2024-02-14T02:28:06;0.20;;;0.20;;
11933;SDS011;6026;48.784;9.198;2024-02-14T02:30:33;0.20;;;0.20;;
11933;SDS011;6026;48.784;9.198;2024-02-14T02:33:02;0.20;;;0.20;;
11933;SDS011;6026;48.784;9.198;2024-02-14T02:35:28;0.40;;;0.40;;
11933;SDS011;6026;48.784;9.198;2024-02-14T02:37:54;0.20;;;0.20;;
11933;SDS011;6026;48.784;9.198;2024-02-14T02:40:20;0.30;;;0.30;;
11933;SDS011;6026;48.784;9.198;2024-02-14T02:42:46;0.17;;;0.17;;
11933;SDS011;6026;48.784;9.198;2024-02-14T02:45:12;0.20;;;0.20;;
11933;SDS011;6026;48.784;9.198;2024-02-14T02:47:38;0.20;;;0.20;;
11933;SDS011;6026;48.784;9.198;2024-02-14T02:50:05;0.20;;;0.20;;
11933;SDS011;6026;48.784;9.198;2024-02-14T02:52:31;0.20;;;0.20;;
11933;SDS011;6026;48.784;9.198;2024-02-14T02:54:57;0.10;;;0.10;;
11933;SDS011;6026;48.784;9.198;2024-02-14T02:57:22;0.20;;;0.20;;
11933;SDS011;6026;48.784;9.198;2024-02-14T02:59:48;0.13;;;0.13;;
11933;SDS011;6026;48.784;9.198;2024-02-14T03:02:16;0.10;;;0.10;;
11933;SDS011;6026;48.784;9.198;2024-02-14T03:04:43;0.30;;;0.30;;
11933;SDS011;6026;48.784;9.198;2024-02-14T03:07:10;0.13;;;0.13;;
11933;SDS011;6026;48.784;9.198;2024-02-14T03:09:35;0.20;;;0.20;;
11933;SDS011;6026;48.784;9.198;2024-02-14T03:12:01;0.20;;;0.20;;
11933;SDS011;6026;48.784;9.198;2024-02-14T03:14:31;0.17;;;0.17;;
11933;SDS011;6026;48.784;9.198;2024-02-14T03:17:00;0.30;;;0.30;;
11933;SDS011;6026;48.784;9.198;2024-02-14T03:19:27;0.20;;;0.20;;
11933;SDS011;6026;48.784;9.198;2024-02-14T03:21:53;0.23;;;0.23;;
11933;SDS011;6026;48.784;9.198;2024-02-14T03:24:19;0.30;;;0.30;;
11933;SDS011;6026;48.784;9.198;2024-02-14T03:26:45;0.20;;;0.20;;
11933;SDS011;6026;48.784;9.198;2024-02-14T03:29:11;0.20;;;0.20;;
11933;SDS011;6026;48.784;9.198;2024-02-14T03:31:37;0.20;;;0.20;;
11933;SDS011;6026;48.784;9.198;2024-02-14T03:34:03;0.27;;;0.27;;
11933;SDS011;6026;48.784;9.198;2024-02-14T03:36:28;0.20;;;0.20;;
11933;SDS011;6026;48.784;9.198;2024-02-14T03:38:59;0.20;;;0.20;;
11933;SDS011;6026;48.784;9.198;2024-02-14T03:41:29;0.20;;;0.20;;
11933;SDS011;6026;48.784;9.198;2024-02-14T03:43:55;0.20;;;0.20;;
11933;SDS011;6026;48.784;9.198;2024-02-14T03:46:23;0.20;;;0.20;;
11933;SDS011;6026;48.784;9.198;2024-02-14T03:48:49;0.10;;;0.10;;
11933;SDS011;6026;48.784;9.198;2024-02-14T03:51:15;0.30;;;0.30;;
11933;SDS011;6026;48.784;9.198;2024-02-14T03:53:41;0.10;;;0.10;;
11933;SDS011;6026;48.784;9.198;2024-02-14T03:56:07;0.20;;;0.20;;
11933;SDS011;6026;48.784;9.198;2024-02-14T03:58:32;0.20;;;0.20;;
11933;SDS011;6026;48.784;9.198;2024-02-14T04:01:02;0.30;;;0.30;;
11933;SDS011;6026;48.784;9.198;2024-02-14T04:03:28;0.20;;;0.20;;
11933;SDS011;6026;48.784;9.198;2024-02-14T04:05:54;0.30;;;0.30;;
11933;SDS011;6026;48.784;9.198;2024-02-14T04:08:20;0.20;;;0.20;;
11933;SDS011;6026;48.784;9.198;2024-02-14T04:10:47;0.27;;;0.27;;
11933;SDS011;6026;48.784;9.198;2024-02-14T04:13:14;0.20;;;0.20;;
11933;SDS011;6026;48.784;9.198;2024-02-14T04:15:40;0.20;;;0.20;;
11933;SDS011;6026;48.784;9.198;2024-02-14T04:18:07;0.30;;;0.30;;
11933;SDS011;6026;48.784;9.198;2024-02-14T04:20:33;0.20;;;0.20;;
11933;SDS011;6026;48.784;9.198;2024-02-14T04:22:59;0.20;;;0.20;;
11933;SDS011;6026;48.784;9.198;2024-02-14T04:25:25;0.30;;;0.30;;
11933;SDS011;6026;48.784;9.198;2024-02-14T04:27:50;0.10;;;0.10;;
11933;SDS011;6026;48.784;9.198;2024-02-14T04:30:16;0.20;;;0.20;;
11933;SDS011;6026;48.784;9.198;2024-02-14T04:32:41;0.20;;;0.20;;
11933;SDS011;6026;48.784;9.198;2024-02-14T04:35:08;0.13;;;0.13;;
11933;SDS011;6026;48.784;9.198;2024-02-14T04:37:34;0.20;;;0.20;;
11933;SDS011;6026;48.784;9.198;2024-02-14T04:40:00;0.20;;;0.20;;
11933;SDS011;6026;48.784;9.198;2024-02-14T04:42:26;0.30;;;0.30;;
11933;SDS011;6026;48.784;9.198;2024-02-14T04:44:51;0.20;;;0.20;;
11933;SDS011;6026;48.784;9.198;2024-02-14T04:47:17;0.20;;;0.20;;
11933;SDS011;6026;48.784;9.198;2024-02-14T04:49:42;0.20;;;0.20;;
11933;SDS011;6026;48.784;9.198;2024-02-14T04:52:08;0.27;;;0.27;;
11933;SDS011;6026;48.784;9.198;2024-02-14T04:54:34;0.30;;;0.30;;
11933;SDS011;6026;48.784;9.198;2024-02-14T04:56:59;0.20;;;0.20;;
11933;SDS011;6026;48.784;9.198;2024-02-14T04:59:25;0.30;;;0.30;;
11933;SDS011;6026;48.784;9.198;2024-02-14T05:01:50;0.30;;;0.30;;
11933;SDS011;6026;48.784;9.198;2024-02-14T05:04:18;0.20;;;0.20;;
11933;SDS011;6026;48.784;9.198;2024-02-14T05:06:44;0.20;;;0.20;;
11933;SDS011;6026;48.784;9.198;2024-02-14T05:09:09;0.30;;;0.30;;
11933;SDS011;6026;48.784;9.198;2024-02-14T05:11:39;0.10;;;0.10;;
11933;SDS011;6026;48.784;9.198;2024-02-14T05:14:05;0.20;;;0.20;;
11933;SDS011;6026;48.784;9.198;2024-02-14T05:16:31;0.30;;;0.30;;
11933;SDS011;6026;48.784;9.198;2024-02-14T05:18:56;0.20;;;0.20;;
11933;SDS011;6026;48.784;9.198;2024-02-14T05:21:22;0.20;;;0.20;;
11933;SDS011;6026;48.784;9.198;2024-02-14T05:23:47;0.20;;;0.20;;
11933;SDS011;6026;48.784;9.198;2024-02-14T05:26:13;0.20;;;0.20;;
11933;SDS011;6026;48.784;9.198;2024-02-14T05:28:39;0.17;;;0.17;;
11933;SDS011;6026;48.784;9.198;2024-02-14T05:31:05;0.30;;;0.30;;
11933;SDS011;6026;48.784;9.198;2024-02-14T05:33:30;0.20;;;0.20;;
11933;SDS011;6026;48.784;9.198;2024-02-14T05:35:56;0.33;;;0.33;;
11933;SDS011;6026;48.784;9.198;2024-02-14T05:38:21;0.37;;;0.37;;
11933;SDS011;6026;48.784;9.198;2024-02-14T05:40:48;0.20;;;0.20;;
11933;SDS011;6026;48.784;9.198;2024-02-14T05:43:14;0.10;;;0.10;;
11933;SDS011;6026;48.784;9.198;2024-02-14T05:45:40;0.30;;;0.30;;
11933;SDS011;6026;48.784;9.198;2024-02-14T05:48:06;0.20;;;0.20;;
11933;SDS011;6026;48.784;9.198;2024-02-14T05:50:32;0.30;;;0.30;;
11933;SDS011;6026;48.784;9.198;2024-02-14T05:52:58;1.27;;;1.27;;
11933;SDS011;6026;48.784;9.198;2024-02-14T05:55:24;0.30;;;0.30;;
11933;SDS011;6026;48.784;9.198;2024-02-14T05:57:53;0.30;;;0.30;;
11933;SDS011;6026;48.784;9.198;2024-02-14T06:00:19;0.20;;;0.20;;
11933;SDS011;6026;48.784;9.198;2024-02-14T06:02:45;0.10;;;0.10;;
11933;SDS011;6026;48.784;9.198;2024-02-14T06:05:12;0.20;;;0.20;;
11933;SDS011;6026;48.784;9.198;2024-02-14T06:07:38;0.20;;;0.20;;
11933;SDS011;6026;48.784;9.198;2024-02-14T06:10:04;0.20;;;0.20;;
11933;SDS011;6026;48.784;9.198;2024-02-14T06:12:31;0.20;;;0.20;;
11933;SDS011;6026;48.784;9.198;2024-02-14T06:14:57;0.17;;;0.17;;
11933;SDS011;6026;48.784;9.198;2024-02-14T06:17:23;0.20;;;0.20;;
11933;SDS011;6026;48.784;9.198;2024-02-14T06:19:48;0.20;;;0.20;;
11933;SDS011;6026;48.784;9.198;2024-02-14T06:22:14;0.20;;;0.20;;
11933;SDS011;6026;48.784;9.198;2024-02-14T06:24:39;0.30;;;0.30;;
11933;SDS011;6026;48.784;9.198;2024-02-14T06:27:06;0.30;;;0.30;;
11933;SDS011;6026;48.784;9.198;2024-02-14T06:29:32;0.20;;;0.20;;
11933;SDS011;6026;48.784;9.198;2024-02-14T06:31:57;0.27;;;0.27;;
11933;SDS011;6026;48.784;9.198;2024-02-14T06:34:23;0.20;;;0.20;;
11933;SDS011;6026;48.784;9.198;2024-02-14T06:36:49;0.40;;;0.40;;
11933;SDS011;6026;48.784;9.198;2024-02-14T06:39:14;0.20;;;0.20;;
11933;SDS011;6026;48.784;9.198;2024-02-14T06:41:40;0.13;;;0.13;;
11933;SDS011;6026;48.784;9.198;2024-02-14T06:44:05;0.20;;;0.20;;
11933;SDS011;6026;48.784;9.198;2024-02-14T06:46:31;0.20;;;0.20;;
11933;SDS011;6026;48.784;9.198;2024-02-14T06:48:57;0.30;;;0.30;;
11933;SDS011;6026;48.784;9.198;2024-02-14T06:51:22;0.30;;;0.30;;
11933;SDS011;6026;48.784;9.198;2024-02-14T06:53:49;0.30;;;0.30;;
11933;SDS011;6026;48.784;9.198;2024-02-14T06:56:15;0.30;;;0.30;;
11933;SDS011;6026;48.784;9.198;2024-02-14T06:58:41;0.30;;;0.30;;
11933;SDS011;6026;48.784;9.198;2024-02-14T07:01:07;0.30;;;0.30;;
11933;SDS011;6026;48.784;9.198;2024-02-14T07:03:32;0.30;;;0.30;;
11933;SDS011;6026;48.784;9.198;2024-02-14T07:05:58;0.20;;;0.20;;
11933;SDS011;6026;48.784;9.198;2024-02-14T07:08:24;0.30;;;0.30;;
11933;SDS011;6026;48.784;9.198;2024-02-14T07:10:52;0.40;;;0.40;;
11933;SDS011;6026;48.784;9.198;2024-02-14T07:13:19;0.20;;;0.20;;
11933;SDS011;6026;48.784;9.198;2024-02-14T07:15:44;0.20;;;0.20;;
11933;SDS011;6026;48.784;9.198;2024-02-14T07:18:10;0.30;;;0.30;;
11933;SDS011;6026;48.784;9.198;2024-02-14T07:20:36;0.30;;;0.30;;
11933;SDS011;6026;48.784;9.198;2024-02-14T07:23:01;0.27;;;0.27;;
11933;SDS011;6026;48.784;9.198;2024-02-14T07:25:28;0.50;;;0.50;;
11933;SDS011;6026;48.784;9.198;2024-02-14T07:27:53;0.20;;;0.20;;
11933;SDS011;6026;48.784;9.198;2024-02-14T07:30:19;0.23;;;0.23;;
11933;SDS011;6026;48.784;9.198;2024-02-14T07:32:44;0.50;;;0.50;;
11933;SDS011;6026;48.784;9.198;2024-02-14T07:35:10;0.40;;;0.40;;
11933;SDS011;6026;48.784;9.198;2024-02-14T07:37:36;0.30;;;0.30;;
11933;SDS011;6026;48.784;9.198;2024-02-14T07:40:02;0.30;;;0.30;;
11933;SDS011;6026;48.784;9.198;2024-02-14T07:42:28;0.20;;;0.20;;
11933;SDS011;6026;48.784;9.198;2024-02-14T07:44:54;0.30;;;0.30;;
11933;SDS011;6026;48.784;9.198;2024-02-14T07:47:21;0.47;;;0.47;;
11933;SDS011;6026;48.784;9.198;2024-02-14T07:49:47;0.40;;;0.40;;
11933;SDS011;6026;48.784;9.198;2024-02-14T07:52:13;0.23;;;0.23;;
11933;SDS011;6026;48.784;9.198;2024-02-14T07:54:38;0.50;;;0.50;;
11933;SDS011;6026;48.784;9.198;2024-02-14T07:57:04;0.30;;;0.30;;
11933;SDS011;6026;48.784;9.198;2024-02-14T07:59:30;0.47;;;0.47;;
11933;SDS011;6026;48.784;9.198;2024-02-14T08:01:55;0.30;;;0.30;;
11933;SDS011;6026;48.784;9.198;2024-02-14T08:04:22;0.33;;;0.33;;
11933;SDS011;6026;48.784;9.198;2024-02-14T08:06:48;0.50;;;0.50;;
11933;SDS011;6026;48.784;9.198;2024-02-14T08:09:14;0.50;;;0.50;;
11933;SDS011;6026;48.784;9.198;2024-02-14T08:11:40;0.50;;;0.50;;
11933;SDS011;6026;48.784;9.198;2024-02-14T08:14:06;0.37;;;0.37;;
11933;SDS011;6026;48.784;9.198;2024-02-14T08:16:31;0.33;;;0.33;;
11933;SDS011;6026;48.784;9.198;2024-02-14T08:18:57;0.40;;;0.40;;
11933;SDS011;6026;48.784;9.198;2024-02-14T08:21:26;0.40;;;0.40;;
11933;SDS011;6026;48.784;9.198;2024-02-14T08:23:54;0.53;;;0.53;;
11933;SDS011;6026;48.784;9.198;2024-02-14T08:26:21;0.50;;;0.50;;
11933;SDS011;6026;48.784;9.198;2024-02-14T08:28:47;0.70;;;0.70;;
11933;SDS011;6026;48.784;9.198;2024-02-14T08:31:14;0.40;;;0.40;;
11933;SDS011;6026;48.784;9.198;2024-02-14T08:33:39;0.40;;;0.40;;
11933;SDS011;6026;48.784;9.198;2024-02-14T08:36:05;0.50;;;0.50;;
11933;SDS011;6026;48.784;9.198;2024-02-14T08:38:31;0.60;;;0.60;;
11933;SDS011;6026;48.784;9.198;2024-02-14T08:40:58;0.40;;;0.40;;
11933;SDS011;6026;48.784;9.198;2024-02-14T08:43:23;0.60;;;0.60;;
11933;SDS011;6026;48.784;9.198;2024-02-14T08:45:53;0.40;;;0.40;;
11933;SDS011;6026;48.784;9.198;2024-02-14T08:48:19;0.50;;;0.50;;
11933;SDS011;6026;48.784;9.198;2024-02-14T08:50:45;0.57;;;0.57;;
11933;SDS011;6026;48.784;9.198;2024-02-14T08:53:11;0.40;;;0.40;;
11933;SDS011;6026;48.784;9.198;2024-02-14T08:55:38;0.50;;;0.50;;
11933;SDS011;6026;48.784;9.198;2024-02-14T08:58:07;0.40;;;0.40;;
11933;SDS011;6026;48.784;9.198;2024-02-14T09:00:34;0.50;;;0.50;;
11933;SDS011;6026;48.784;9.198;2024-02-14T09:03:01;0.70;;;0.70;;
11933;SDS011;6026;48.784;9.198;2024-02-14T09:05:30;0.53;;;0.53;;
11933;SDS011;6026;48.784;9.198;2024-02-14T09:07:55;0.50;;;0.50;;
11933;SDS011;6026;48.784;9.198;2024-02-14T09:10:21;0.80;;;0.80;;
11933;SDS011;6026;48.784;9.198;2024-02-14T09:12:47;0.80;;;0.80;;
11933;SDS011;6026;48.784;9.198;2024-02-14T09:15:13;0.60;;;0.60;;
11933;SDS011;6026;48.784;9.198;2024-02-14T09:17:39;0.67;;;0.67;;
11933;SDS011;6026;48.784;9.198;2024-02-14T09:20:06;0.40;;;0.40;;
11933;SDS011;6026;48.784;9.198;2024-02-14T09:22:37;0.60;;;0.60;;
11933;SDS011;6026;48.784;9.198;2024-02-14T09:25:03;0.80;;;0.80;;
11933;SDS011;6026;48.784;9.198;2024-02-14T09:27:29;0.53;;;0.53;;
11933;SDS011;6026;48.784;9.198;2024-02-14T09:29:55;0.70;;;0.70;;
11933;SDS011;6026;48.784;9.198;2024-02-14T09:32:21;0.60;;;0.60;;
11933;SDS011;6026;48.784;9.198;2024-02-14T09:34:46;0.60;;;0.60;;
11933;SDS011;6026;48.784;9.198;2024-02-14T09:37:12;0.70;;;0.70;;
11933;SDS011;6026;48.784;9.198;2024-02-14T09:42:05;0.50;;;0.50;;
11933;SDS011;6026;48.784;9.198;2024-02-14T09:44:34;0.50;;;0.50;;
11933;SDS011;6026;48.784;9.198;2024-02-14T09:47:00;0.60;;;0.60;;
11933;SDS011;6026;48.784;9.198;2024-02-14T09:49:29;0.70;;;0.70;;
11933;SDS011;6026;48.784;9.198;2024-02-14T09:51:56;0.60;;;0.60;;
11933;SDS011;6026;48.784;9.198;2024-02-14T09:54:22;0.60;;;0.60;;
11933;SDS011;6026;48.784;9.198;2024-02-14T09:56:50;0.50;;;0.50;;
11933;SDS011;6026;48.784;9.198;2024-02-14T09:59:18;0.50;;;0.50;;
11933;SDS011;6026;48.784;9.198;2024-02-14T10:01:45;0.60;;;0.60;;
11933;SDS011;6026;48.784;9.198;2024-02-14T10:04:13;0.70;;;0.70;;
11933;SDS011;6026;48.784;9.198;2024-02-14T10:06:38;0.70;;;0.70;;
11933;SDS011;6026;48.784;9.198;2024-02-14T10:09:04;0.70;;;0.70;;
11933;SDS011;6026;48.784;9.198;2024-02-14T10:11:33;0.80;;;0.80;;
11933;SDS011;6026;48.784;9.198;2024-02-14T10:14:00;0.80;;;0.80;;
11933;SDS011;6026;48.784;9.198;2024-02-14T10:16:29;0.70;;;0.70;;
11933;SDS011;6026;48.784;9.198;2024-02-14T10:18:54;0.60;;;0.60;;
11933;SDS011;6026;48.784;9.198;2024-02-14T10:21:21;0.80;;;0.80;;
11933;SDS011;6026;48.784;9.198;2024-02-14T10:23:47;0.70;;;0.70;;
11933;SDS011;6026;48.784;9.198;2024-02-14T10:26:17;0.70;;;0.70;;
11933;SDS011;6026;48.784;9.198;2024-02-14T10:28:43;0.80;;;0.80;;
11933;SDS011;6026;48.784;9.198;2024-02-14T10:31:12;0.87;;;0.87;;
11933;SDS011;6026;48.784;9.198;2024-02-14T10:33:38;0.70;;;0.70;;
11933;SDS011;6026;48.784;9.198;2024-02-14T10:36:03;0.70;;;0.70;;
11933;SDS011;6026;48.784;9.198;2024-02-14T10:38:37;0.70;;;0.70;;
11933;SDS011;6026;48.784;9.198;2024-02-14T10:41:04;0.80;;;0.80;;
11933;SDS011;6026;48.784;9.198;2024-02-14T10:43:30;0.80;;;0.80;;
11933;SDS011;6026;48.784;9.198;2024-02-14T10:45:56;0.90;;;0.90;;
11933;SDS011;6026;48.784;9.198;2024-02-14T10:48:24;0.80;;;0.80;;
11933;SDS011;6026;48.784;9.198;2024-02-14T10:50:51;0.73;;;0.73;;
11933;SDS011;6026;48.784;9.198;2024-02-14T10:53:20;0.80;;;0.80;;
11933;SDS011;6026;48.784;9.198;2024-02-14T10:55:48;0.90;;;0.90;;
11933;SDS011;6026;48.784;9.198;2024-02-14T10:58:17;0.80;;;0.80;;
11933;SDS011;6026;48.784;9.198;2024-02-14T11:00:43;0.90;;;0.90;;
11933;SDS011;6026;48.784;9.198;2024-02-14T11:03:10;0.90;;;0.90;;
11933;SDS011;6026;48.784;9.198;2024-02-14T11:05:46;0.90;;;0.90;;
11933;SDS011;6026;48.784;9.198;2024-02-14T11:08:22;0.80;;;0.80;;
11933;SDS011;6026;48.784;9.198;2024-02-14T11:10:56;0.80;;;0.80;;
11933;SDS011;6026;48.784;9.198;2024-02-14T11:13:32;0.83;;;0.83;;
11933;SDS011;6026;48.784;9.198;2024-02-14T11:16:00;0.60;;;0.60;;
11933;SDS011;6026;48.784;9.198;2024-02-14T11:18:27;0.87;;;0.87;;
11933;SDS011;6026;48.784;9.198;2024-02-14T11:20:58;0.73;;;0.73;;
11933;SDS011;6026;48.784;9.198;2024-02-14T11:23:24;0.80;;;0.80;;
11933;SDS011;6026;48.784;9.198;2024-02-14T11:25:58;0.90;;;0.90;;
11933;SDS011;6026;48.784;9.198;2024-02-14T11:28:36;0.80;;;0.80;;
11933;SDS011;6026;48.784;9.198;2024-02-14T11:31:04;0.90;;;0.90;;
11933;SDS011;6026;48.784;9.198;2024-02-14T11:33:32;0.83;;;0.83;;
11933;SDS011;6026;48.784;9.198;2024-02-14T11:35:58;0.80;;;0.80;;
11933;SDS011;6026;48.784;9.198;2024-02-14T11:38:32;0.80;;;0.80;;
11933;SDS011;6026;48.784;9.198;2024-02-14T11:40:57;0.90;;;0.90;;
11933;SDS011;6026;48.784;9.198;2024-02-14T11:43:23;0.80;;;0.80;;
11933;SDS011;6026;48.784;9.198;2024-02-14T11:45:49;0.90;;;0.90;;
11933;SDS011;6026;48.784;9.198;2024-02-14T11:48:16;0.70;;;0.70;;
11933;SDS011;6026;48.784;9.198;2024-02-14T11:50:42;0.70;;;0.70;;
11933;SDS011;6026;48.784;9.198;2024-02-14T11:53:09;0.70;;;0.70;;
11933;SDS011;6026;48.784;9.198;2024-02-14T11:55:39;0.67;;;0.67;;
11933;SDS011;6026;48.784;9.198;2024-02-14T11:58:13;0.60;;;0.60;;
11933;SDS011;6026;48.784;9.198;2024-02-14T12:00:41;0.80;;;0.80;;
11933;SDS011;6026;48.784;9.198;2024-02-14T12:03:21;0.80;;;0.80;;
11933;SDS011;6026;48.784;9.198;2024-02-14T12:05:48;0.83;;;0.83;;
11933;SDS011;6026;48.784;9.198;2024-02-14T12:08:15;0.80;;;0.80;;
11933;SDS011;6026;48.784;9.198;2024-02-14T12:10:44;0.70;;;0.70;;
11933;SDS011;6026;48.784;9.198;2024-02-14T12:13:17;0.90;;;0.90;;
11933;SDS011;6026;48.784;9.198;2024-02-14T12:15:46;0.77;;;0.77;;
11933;SDS011;6026;48.784;9.198;2024-02-14T12:18:16;0.80;;;0.80;;
11933;SDS011;6026;48.784;9.198;2024-02-14T12:20:45;0.90;;;0.90;;
11933;SDS011;6026;48.784;9.198;2024-02-14T12:23:17;0.90;;;0.90;;
11933;SDS011;6026;48.784;9.198;2024-02-14T12:25:44;0.80;;;0.80;;
11933;SDS011;6026;48.784;9.198;2024-02-14T12:28:15;0.80;;;0.80;;
11933;SDS011;6026;48.784;9.198;2024-02-14T12:30:51;0.80;;;0.80;;
11933;SDS011;6026;48.784;9.198;2024-02-14T12:33:21;0.80;;;0.80;;
11933;SDS011;6026;48.784;9.198;2024-02-14T12:35:48;1.00;;;1.00;;
11933;SDS011;6026;48.784;9.198;2024-02-14T12:38:14;0.90;;;0.90;;
11933;SDS011;6026;48.784;9.198;2024-02-14T12:40:41;0.90;;;0.90;;
11933;SDS011;6026;48.784;9.198;2024-02-14T12:43:07;0.80;;;0.80;;
11933;SDS011;6026;48.784;9.198;2024-02-14T12:45:34;0.90;;;0.90;;
11933;SDS011;6026;48.784;9.198;2024-02-14T12:48:00;0.87;;;0.87;;
11933;SDS011;6026;48.784;9.198;2024-02-14T12:50:25;1.00;;;1.00;;
11933;SDS011;6026;48.784;9.198;2024-02-14T12:52:51;0.90;;;0.90;;
11933;SDS011;6026;48.784;9.198;2024-02-14T12:55:17;1.73;;;1.63;;
11933;SDS011;6026;48.784;9.198;2024-02-14T12:57:43;0.87;;;0.87;;
11933;SDS011;6026;48.784;9.198;2024-02-14T13:00:10;0.83;;;0.83;;
11933;SDS011;6026;48.784;9.198;2024-02-14T13:02:36;0.90;;;0.90;;
11933;SDS011;6026;48.784;9.198;2024-02-14T13:05:03;0.87;;;0.87;;
11933;SDS011;6026;48.784;9.198;2024-02-14T13:07:30;0.60;;;0.60;;
11933;SDS011;6026;48.784;9.198;2024-02-14T13:09:56;0.90;;;0.90;;
11933;SDS011;6026;48.784;9.198;2024-02-14T13:12:21;0.70;;;0.70;;
11933;SDS011;6026;48.784;9.198;2024-02-14T13:14:47;0.80;;;0.80;;
11933;SDS011;6026;48.784;9.198;2024-02-14T13:17:13;0.73;;;0.73;;
11933;SDS011;6026;48.784;9.198;2024-02-14T13:19:39;0.90;;;0.90;;
11933;SDS011;6026;48.784;9.198;2024-02-14T13:22:05;0.73;;;0.73;;
11933;SDS011;6026;48.784;9.198;2024-02-14T13:24:31;0.90;;;0.90;;
11933;SDS011;6026;48.784;9.198;2024-02-14T13:26:56;0.90;;;0.90;;
11933;SDS011;6026;48.784;9.198;2024-02-14T13:29:25;0.90;;;0.90;;
11933;SDS011;6026;48.784;9.198;2024-02-14T13:31:50;0.77;;;0.77;;
11933;SDS011;6026;48.784;9.198;2024-02-14T13:34:16;0.77;;;0.77;;
11933;SDS011;6026;48.784;9.198;2024-02-14T13:36:44;0.80;;;0.80;;
11933;SDS011;6026;48.784;9.198;2024-02-14T13:39:13;0.77;;;0.77;;
11933;SDS011;6026;48.784;9.198;2024-02-14T13:41:42;0.90;;;0.90;;
11933;SDS011;6026;48.784;9.198;2024-02-14T13:44:09;0.73;;;0.73;;
11933;SDS011;6026;48.784;9.198;2024-02-14T13:46:35;0.77;;;0.77;;
11933;SDS011;6026;48.784;9.198;2024-02-14T13:49:02;0.83;;;0.83;;
11933;SDS011;6026;48.784;9.198;2024-02-14T13:51:28;0.77;;;0.77;;
11933;SDS011;6026;48.784;9.198;2024-02-14T13:53:53;0.90;;;0.90;;
11933;SDS011;6026;48.784;9.198;2024-02-14T13:56:20;0.90;;;0.90;;
11933;SDS011;6026;48.784;9.198;2024-02-14T13:58:47;0.90;;;0.90;;
11933;SDS011;6026;48.784;9.198;2024-02-14T14:01:16;0.90;;;0.90;;
11933;SDS011;6026;48.784;9.198;2024-02-14T14:03:42;0.77;;;0.77;;
11933;SDS011;6026;48.784;9.198;2024-02-14T14:06:08;1.00;;;1.00;;
11933;SDS011;6026;48.784;9.198;2024-02-14T14:08:34;0.80;;;0.80;;
11933;SDS011;6026;48.784;9.198;2024-02-14T14:11:06;0.87;;;0.87;;
11933;SDS011;6026;48.784;9.198;2024-02-14T14:13:36;0.80;;;0.80;;
11933;SDS011;6026;48.784;9.198;2024-02-14T14:16:02;0.77;;;0.77;;
11933;SDS011;6026;48.784;9.198;2024-02-14T14:18:30;0.90;;;0.90;;
11933;SDS011;6026;48.784;9.198;2024-02-14T14:20:56;0.87;;;0.87;;
11933;SDS011;6026;48.784;9.198;2024-02-14T14:23:23;0.80;;;0.80;;
11933;SDS011;6026;48.784;9.198;2024-02-14T14:25:49;0.90;;;0.90;;
11933;SDS011;6026;48.784;9.198;2024-02-14T14:28:14;0.83;;;0.83;;
11933;SDS011;6026;48.784;9.198;2024-02-14T14:30:42;0.90;;;0.90;;
11933;SDS011;6026;48.784;9.198;2024-02-14T14:33:10;0.80;;;0.80;;
11933;SDS011;6026;48.784;9.198;2024-02-14T14:35:36;0.80;;;0.80;;
11933;SDS011;6026;48.784;9.198;2024-02-14T14:38:02;0.83;;;0.83;;
11933;SDS011;6026;48.784;9.198;2024-02-14T14:40:28;0.80;;;0.80;;
11933;SDS011;6026;48.784;9.198;2024-02-14T14:42:54;0.90;;;0.90;;
11933;SDS011;6026;48.784;9.198;2024-02-14T14:45:20;0.90;;;0.90;;
11933;SDS011;6026;48.784;9.198;2024-02-14T14:47:45;0.60;;;0.60;;
11933;SDS011;6026;48.784;9.198;2024-02-14T14:50:11;0.80;;;0.80;;
11933;SDS011;6026;48.784;9.198;2024-02-14T14:52:38;0.70;;;0.70;;
11933;SDS011;6026;48.784;9.198;2024-02-14T14:55:04;0.80;;;0.80;;
11933;SDS011;6026;48.784;9.198;2024-02-14T14:57:30;0.80;;;0.80;;
11933;SDS011;6026;48.784;9.198;2024-02-14T14:59:56;0.90;;;0.90;;